Time;durP1;ratioP1;P1;durP2;ratioP2;P2;SDS_P1;SDS_P2;PMS_P1;PMS_P2;Temp;Humidity;BMP_temperature;BMP_pressure;BME280_temperature;BME280_humidity;BME280_pressure;Samples;Min_cycle;Max_cycle;Signal;HPM_P1;HPM_P2
2021/05/25 00:01:24;;;;;;;1.50;0.70;;;;;;;;;;5049910;28;20096;-68
2021/05/25 00:03:49;;;;;;;2.05;0.70;;;;;;;;;;5050384;28;20033;-68
2021/05/25 00:06:14;;;;;;;4.77;0.70;;;;;;;;;;5050381;28;20032;-68
2021/05/25 00:08:40;;;;;;;1.67;0.90;;;;;;;;;;5050059;28;20287;-68
2021/05/25 00:11:05;;;;;;;4.95;0.65;;;;;;;;;;5050297;28;20024;-68
2021/05/25 00:13:30;;;;;;;1.95;0.57;;;;;;;;;;5049918;28;20078;-68
2021/05/25 00:15:55;;;;;;;5.57;0.90;;;;;;;;;;5050371;28;20080;-68
2021/05/25 00:18:21;;;;;;;5.65;0.80;;;;;;;;;;5049883;28;20051;-68
2021/05/25 00:20:46;;;;;;;4.40;0.60;;;;;;;;;;5032563;28;20029;-68
2021/05/25 00:23:12;;;;;;;5.88;1.05;;;;;;;;;;5048641;28;20028;-68
2021/05/25 00:25:37;;;;;;;3.50;0.63;;;;;;;;;;5050030;28;20031;-67
2021/05/25 00:28:02;;;;;;;5.38;0.90;;;;;;;;;;5049753;28;20138;-67
2021/05/25 00:30:27;;;;;;;2.92;0.73;;;;;;;;;;5050186;28;20105;-67
2021/05/25 00:32:53;;;;;;;4.03;0.87;;;;;;;;;;5050150;28;20070;-67
2021/05/25 00:35:18;;;;;;;1.40;0.90;;;;;;;;;;5050121;28;20259;-67
2021/05/25 00:37:44;;;;;;;2.92;0.70;;;;;;;;;;5049636;28;20017;-67
2021/05/25 00:40:10;;;;;;;1.65;0.40;;;;;;;;;;5049688;28;20028;-67
2021/05/25 00:42:36;;;;;;;0.80;0.50;;;;;;;;;;5032263;28;20013;-67
2021/05/25 00:45:01;;;;;;;4.90;0.90;;;;;;;;;;5049684;28;20374;-67
2021/05/25 00:47:27;;;;;;;2.17;0.50;;;;;;;;;;5049705;28;20652;-68
2021/05/25 00:49:53;;;;;;;1.45;0.47;;;;;;;;;;5050207;28;20028;-68
2021/05/25 00:52:18;;;;;;;0.28;0.20;;;;;;;;;;5049817;28;20075;-68
2021/05/25 00:54:43;;;;;;;0.28;0.22;;;;;;;;;;5049161;28;20447;-68
2021/05/25 00:57:08;;;;;;;2.55;0.65;;;;;;;;;;5049104;28;20040;-67
2021/05/25 00:59:34;;;;;;;2.90;0.70;;;;;;;;;;5049798;28;20095;-67
2021/05/25 01:01:59;;;;;;;3.47;0.75;;;;;;;;;;5048557;28;20025;-68
2021/05/25 01:04:24;;;;;;;1.52;0.50;;;;;;;;;;5049373;28;20423;-67
2021/05/25 01:06:49;;;;;;;4.13;0.70;;;;;;;;;;5050737;28;20096;-68
2021/05/25 01:09:17;;;;;;;1.77;0.40;;;;;;;;;;5053837;28;20836;-68
2021/05/25 01:11:43;;;;;;;1.05;0.40;;;;;;;;;;5053620;28;20318;-67
2021/05/25 01:14:09;;;;;;;5.20;1.02;;;;;;;;;;5053980;28;20105;-69
2021/05/25 01:16:34;;;;;;;1.23;0.40;;;;;;;;;;5053215;28;20052;-66
2021/05/25 01:18:59;;;;;;;0.95;0.32;;;;;;;;;;5069659;22;20096;-61
2021/05/25 01:21:26;;;;;;;2.60;0.40;;;;;;;;;;5033946;28;20470;-64
2021/05/25 01:23:51;;;;;;;1.20;0.32;;;;;;;;;;5033610;28;20014;-64
2021/05/25 01:26:17;;;;;;;1.90;0.40;;;;;;;;;;5033003;28;20068;-62
2021/05/25 01:28:44;;;;;;;1.58;0.55;;;;;;;;;;5034552;28;20037;-63
2021/05/25 01:31:09;;;;;;;2.65;0.60;;;;;;;;;;5033099;28;20470;-63
2021/05/25 01:33:37;;;;;;;2.63;0.45;;;;;;;;;;5032707;28;20021;-62
2021/05/25 01:36:12;;;;;;;1.05;0.63;;;;;;;;;;5032577;28;20029;-62
2021/05/25 01:38:38;;;;;;;4.47;1.52;;;;;;;;;;5032865;28;20017;-62
2021/05/25 01:41:07;;;;;;;1.08;0.28;;;;;;;;;;5032519;28;20025;-63
2021/05/25 01:43:32;;;;;;;3.83;0.60;;;;;;;;;;5033192;28;20052;-63
2021/05/25 01:45:58;;;;;;;3.13;0.52;;;;;;;;;;5032385;28;20494;-61
2021/05/25 01:48:23;;;;;;;0.70;0.50;;;;;;;;;;5032911;28;20029;-61
2021/05/25 01:50:49;;;;;;;3.00;0.57;;;;;;;;;;5032412;28;20083;-61
2021/05/25 01:53:15;;;;;;;1.38;0.30;;;;;;;;;;5032988;28;20653;-61
2021/05/25 01:55:45;;;;;;;1.90;0.50;;;;;;;;;;5032824;28;20025;-61
2021/05/25 01:58:10;;;;;;;3.75;0.30;;;;;;;;;;5032423;28;20035;-63
2021/05/25 02:00:35;;;;;;;1.53;0.37;;;;;;;;;;5032658;28;20029;-61
2021/05/25 02:03:01;;;;;;;1.90;0.55;;;;;;;;;;5032944;28;20679;-62
2021/05/25 02:05:26;;;;;;;0.98;0.30;;;;;;;;;;5032212;28;20029;-62
2021/05/25 02:07:52;;;;;;;1.48;0.40;;;;;;;;;;5032756;28;20068;-62
2021/05/25 02:10:22;;;;;;;0.80;0.30;;;;;;;;;;5031846;28;20477;-61
2021/05/25 02:12:47;;;;;;;0.65;0.28;;;;;;;;;;5032228;28;20025;-63
2021/05/25 02:15:12;;;;;;;5.97;0.57;;;;;;;;;;5032222;28;20014;-62
2021/05/25 02:17:38;;;;;;;1.55;0.47;;;;;;;;;;5032518;28;20237;-62
2021/05/25 02:20:03;;;;;;;0.93;0.30;;;;;;;;;;5031860;28;20363;-62
2021/05/25 02:22:28;;;;;;;2.90;0.65;;;;;;;;;;5014134;28;20351;-62
2021/05/25 02:24:53;;;;;;;2.90;0.50;;;;;;;;;;5032292;28;20465;-62
2021/05/25 02:27:18;;;;;;;0.77;0.50;;;;;;;;;;5031672;28;20044;-63
2021/05/25 02:29:44;;;;;;;4.03;0.40;;;;;;;;;;5031958;28;20586;-62
2021/05/25 02:32:09;;;;;;;2.27;0.70;;;;;;;;;;5014347;28;20273;-64
2021/05/25 02:34:34;;;;;;;4.95;0.52;;;;;;;;;;5031799;28;20268;-62
2021/05/25 02:36:59;;;;;;;0.20;0.20;;;;;;;;;;5032115;28;20497;-63
2021/05/25 02:39:24;;;;;;;0.40;0.40;;;;;;;;;;5031955;28;20283;-63
2021/05/25 02:41:49;;;;;;;1.10;0.50;;;;;;;;;;5031428;28;20260;-63
2021/05/25 02:44:15;;;;;;;2.28;0.30;;;;;;;;;;5032009;28;20040;-62
2021/05/25 02:46:40;;;;;;;1.15;0.30;;;;;;;;;;5031810;28;20445;-63
2021/05/25 02:49:05;;;;;;;3.88;0.50;;;;;;;;;;5031575;28;20061;-63
2021/05/25 02:51:30;;;;;;;1.17;0.38;;;;;;;;;;5032034;28;20028;-63
2021/05/25 02:53:55;;;;;;;1.17;0.40;;;;;;;;;;5031271;28;20037;-63
2021/05/25 02:56:21;;;;;;;1.90;0.63;;;;;;;;;;5031625;28;20025;-62
2021/05/25 02:58:46;;;;;;;0.77;0.40;;;;;;;;;;5031183;28;20326;-63
2021/05/25 03:01:11;;;;;;;2.30;0.50;;;;;;;;;;5031007;28;20084;-62
2021/05/25 03:03:36;;;;;;;2.45;0.35;;;;;;;;;;5031855;28;20260;-63
2021/05/25 03:06:01;;;;;;;1.90;0.30;;;;;;;;;;5030942;28;20453;-63
2021/05/25 03:08:27;;;;;;;2.00;0.50;;;;;;;;;;5031209;28;20056;-63
2021/05/25 03:10:52;;;;;;;1.85;0.60;;;;;;;;;;5030727;28;20026;-63
2021/05/25 03:13:18;;;;;;;2.33;0.60;;;;;;;;;;5030478;28;20033;-64
2021/05/25 03:15:45;;;;;;;1.05;0.40;;;;;;;;;;5031276;28;20462;-63
2021/05/25 03:18:11;;;;;;;1.98;0.40;;;;;;;;;;5013474;28;20029;-63
2021/05/25 03:20:37;;;;;;;2.17;0.75;;;;;;;;;;5030876;28;20037;-63
2021/05/25 03:23:03;;;;;;;2.13;0.47;;;;;;;;;;5031083;28;20025;-63
2021/05/25 03:25:28;;;;;;;1.80;0.60;;;;;;;;;;5024362;28;20049;-63
2021/05/25 03:27:54;;;;;;;0.73;0.38;;;;;;;;;;5030911;28;20049;-62
2021/05/25 03:30:21;;;;;;;2.03;0.50;;;;;;;;;;5029916;28;20104;-62
2021/05/25 03:32:46;;;;;;;1.42;0.50;;;;;;;;;;5031301;28;20167;-63
2021/05/25 03:35:13;;;;;;;1.73;0.82;;;;;;;;;;5030922;28;20113;-62
2021/05/25 03:37:38;;;;;;;1.35;0.52;;;;;;;;;;5030275;28;20092;-62
2021/05/25 03:40:04;;;;;;;3.03;0.80;;;;;;;;;;5030183;28;20191;-62
2021/05/25 03:42:29;;;;;;;1.20;0.50;;;;;;;;;;5030553;28;20021;-63
2021/05/25 03:44:56;;;;;;;1.25;0.40;;;;;;;;;;5030497;28;20052;-63
2021/05/25 03:47:21;;;;;;;0.60;0.50;;;;;;;;;;5029490;28;20370;-63
2021/05/25 03:49:47;;;;;;;4.15;0.70;;;;;;;;;;5030433;28;20021;-62
2021/05/25 03:52:12;;;;;;;0.35;0.20;;;;;;;;;;5029834;28;20278;-62
2021/05/25 03:54:44;;;;;;;1.20;0.30;;;;;;;;;;5013882;28;20020;-63
2021/05/25 03:59:57;;;;;;;0.77;0.40;;;;;;;;;;5009901;28;20109;-62
2021/05/25 04:02:22;;;;;;;2.27;0.40;;;;;;;;;;5029998;28;20021;-62
2021/05/25 04:04:48;;;;;;;2.20;0.40;;;;;;;;;;5030965;28;20276;-62
2021/05/25 04:07:13;;;;;;;4.00;0.60;;;;;;;;;;5029656;28;20520;-62
2021/05/25 04:09:39;;;;;;;1.13;0.50;;;;;;;;;;5030339;28;20048;-65
2021/05/25 04:12:04;;;;;;;3.97;0.50;;;;;;;;;;5030027;28;20108;-62
2021/05/25 04:14:30;;;;;;;0.70;0.50;;;;;;;;;;5030496;28;20395;-62
2021/05/25 04:16:56;;;;;;;3.55;0.80;;;;;;;;;;5030061;28;20063;-66
2021/05/25 04:19:21;;;;;;;1.15;0.40;;;;;;;;;;5029533;28;20021;-64
2021/05/25 04:21:47;;;;;;;8.88;0.70;;;;;;;;;;5030054;28;20298;-62
2021/05/25 04:24:12;;;;;;;2.60;0.68;;;;;;;;;;5029871;28;20108;-64
2021/05/25 04:26:38;;;;;;;2.42;0.68;;;;;;;;;;5029042;28;20113;-64
2021/05/25 04:29:03;;;;;;;5.95;0.70;;;;;;;;;;5029416;28;20824;-65
2021/05/25 04:31:28;;;;;;;2.97;0.90;;;;;;;;;;5030350;28;20030;-63
2021/05/25 04:33:53;;;;;;;2.05;0.80;;;;;;;;;;5029586;28;20021;-64
2021/05/25 04:36:18;;;;;;;1.10;0.70;;;;;;;;;;5027840;28;20043;-64
2021/05/25 04:38:44;;;;;;;2.97;1.10;;;;;;;;;;5017658;28;20281;-64
2021/05/25 04:41:09;;;;;;;1.30;0.60;;;;;;;;;;5023198;28;20055;-64
2021/05/25 04:43:34;;;;;;;2.83;0.93;;;;;;;;;;5027247;28;20116;-65
2021/05/25 04:46:00;;;;;;;3.05;0.90;;;;;;;;;;5027451;28;20541;-62
2021/05/25 04:48:25;;;;;;;2.17;0.90;;;;;;;;;;5027597;28;20095;-63
2021/05/25 04:50:51;;;;;;;2.10;0.80;;;;;;;;;;5027963;28;20103;-63
2021/05/25 04:53:16;;;;;;;2.23;0.60;;;;;;;;;;5027049;28;20393;-62
2021/05/25 04:55:41;;;;;;;2.67;0.55;;;;;;;;;;5027468;28;20359;-62
2021/05/25 04:58:06;;;;;;;3.20;0.82;;;;;;;;;;5026994;28;20018;-62
2021/05/25 05:00:31;;;;;;;1.02;0.60;;;;;;;;;;5028033;28;20018;-63
2021/05/25 05:02:57;;;;;;;0.47;0.40;;;;;;;;;;5027953;28;20075;-63
2021/05/25 05:05:23;;;;;;;3.53;0.70;;;;;;;;;;5022982;28;20037;-64
2021/05/25 05:07:48;;;;;;;1.58;0.70;;;;;;;;;;5019274;28;20324;-64
2021/05/25 05:10:14;;;;;;;1.60;0.90;;;;;;;;;;5025376;28;20504;-63
2021/05/25 05:12:39;;;;;;;2.50;0.75;;;;;;;;;;5018601;28;20053;-63
2021/05/25 05:15:05;;;;;;;1.92;0.68;;;;;;;;;;5026334;28;20080;-62
2021/05/25 05:17:31;;;;;;;2.15;0.60;;;;;;;;;;5026658;28;20286;-63
2021/05/25 05:19:57;;;;;;;3.85;0.50;;;;;;;;;;5027282;28;20072;-62
2021/05/25 05:22:22;;;;;;;1.95;0.80;;;;;;;;;;5021406;28;20029;-64
2021/05/25 05:24:48;;;;;;;2.20;0.90;;;;;;;;;;5020003;28;20029;-63
2021/05/25 05:27:13;;;;;;;1.27;0.70;;;;;;;;;;5023734;28;20029;-63
2021/05/25 05:29:38;;;;;;;2.00;0.60;;;;;;;;;;5027224;28;20029;-64
2021/05/25 05:32:04;;;;;;;5.78;0.75;;;;;;;;;;5027178;28;20132;-63
2021/05/25 05:34:29;;;;;;;1.88;0.52;;;;;;;;;;5027355;28;20032;-66
2021/05/25 05:36:54;;;;;;;4.60;0.95;;;;;;;;;;5025285;28;20030;-64
2021/05/25 05:39:20;;;;;;;2.55;0.52;;;;;;;;;;5014326;28;20387;-64
2021/05/25 05:41:45;;;;;;;34.58;1.75;;;;;;;;;;5021409;28;20057;-63
2021/05/25 05:44:10;;;;;;;4.90;1.23;;;;;;;;;;5029071;28;20055;-63
2021/05/25 05:46:35;;;;;;;5.63;1.17;;;;;;;;;;5028731;28;20496;-63
2021/05/25 05:49:01;;;;;;;3.30;1.20;;;;;;;;;;5028811;28;20071;-63
2021/05/25 05:51:26;;;;;;;4.20;1.27;;;;;;;;;;5028942;28;20022;-63
2021/05/25 05:53:51;;;;;;;2.67;1.10;;;;;;;;;;5031123;28;20029;-62
2021/05/25 05:56:19;;;;;;;2.30;0.65;;;;;;;;;;5032180;28;20025;-62
2021/05/25 05:58:45;;;;;;;4.13;1.02;;;;;;;;;;5031870;28;20035;-64
2021/05/25 06:01:11;;;;;;;12.00;0.93;;;;;;;;;;5032490;28;20021;-66
2021/05/25 06:03:36;;;;;;;1.65;0.75;;;;;;;;;;5032419;28;20265;-63
2021/05/25 06:06:01;;;;;;;3.90;0.88;;;;;;;;;;5032207;28;20123;-63
2021/05/25 06:08:27;;;;;;;2.33;0.80;;;;;;;;;;5031751;28;20033;-63
2021/05/25 06:10:52;;;;;;;4.10;0.80;;;;;;;;;;5031841;28;20029;-63
2021/05/25 06:13:21;;;;;;;6.57;0.95;;;;;;;;;;5032076;28;20270;-62
2021/05/25 06:15:48;;;;;;;1.95;0.70;;;;;;;;;;5032787;28;20084;-63
2021/05/25 06:18:13;;;;;;;1.80;0.80;;;;;;;;;;5029083;28;20437;-64
2021/05/25 06:20:38;;;;;;;3.60;1.20;;;;;;;;;;5029388;28;20022;-63
2021/05/25 06:23:03;;;;;;;3.10;0.98;;;;;;;;;;5028960;28;20013;-64
2021/05/25 06:25:29;;;;;;;1.73;0.77;;;;;;;;;;5028011;28;20104;-64
2021/05/25 06:27:56;;;;;;;5.75;1.33;;;;;;;;;;5028735;28;20394;-63
2021/05/25 06:30:21;;;;;;;6.47;1.15;;;;;;;;;;5026810;28;20026;-63
2021/05/25 06:32:46;;;;;;;2.38;1.08;;;;;;;;;;5026175;28;20021;-64
2021/05/25 06:35:11;;;;;;;4.00;0.75;;;;;;;;;;5027023;28;20028;-63
2021/05/25 06:37:37;;;;;;;1.92;1.02;;;;;;;;;;5027848;28;20116;-64
2021/05/25 06:40:02;;;;;;;2.03;1.10;;;;;;;;;;5026143;28;20084;-63
2021/05/25 06:42:28;;;;;;;1.05;0.70;;;;;;;;;;5026856;28;20044;-64
2021/05/25 06:44:53;;;;;;;1.77;0.70;;;;;;;;;;5027443;28;20032;-63
2021/05/25 06:47:18;;;;;;;2.80;1.02;;;;;;;;;;5026876;28;20590;-61
2021/05/25 06:49:43;;;;;;;3.55;0.98;;;;;;;;;;5026291;28;20029;-63
2021/05/25 06:52:10;;;;;;;2.90;0.88;;;;;;;;;;5026148;28;20405;-63
2021/05/25 06:54:35;;;;;;;2.58;0.85;;;;;;;;;;5026604;28;20048;-63
2021/05/25 06:57:00;;;;;;;1.05;0.60;;;;;;;;;;5026645;28;20021;-63
2021/05/25 06:59:26;;;;;;;2.38;1.13;;;;;;;;;;5026882;28;20052;-65
2021/05/25 07:01:53;;;;;;;3.90;0.70;;;;;;;;;;5026308;28;20428;-64
2021/05/25 07:04:18;;;;;;;1.80;0.88;;;;;;;;;;5025109;28;20025;-63
2021/05/25 07:06:43;;;;;;;3.53;0.75;;;;;;;;;;5026053;28;20083;-64
2021/05/25 07:09:08;;;;;;;1.17;0.73;;;;;;;;;;5026364;28;20037;-65
2021/05/25 07:11:33;;;;;;;2.57;0.97;;;;;;;;;;5025974;28;20656;-65
2021/05/25 07:14:00;;;;;;;1.42;0.80;;;;;;;;;;5026016;28;20353;-64
2021/05/25 07:16:25;;;;;;;0.65;0.50;;;;;;;;;;5025184;28;20394;-64
2021/05/25 07:18:50;;;;;;;3.05;0.82;;;;;;;;;;5041521;22;20029;-70
2021/05/25 07:21:15;;;;;;;4.32;1.13;;;;;;;;;;5013294;28;20030;-68
2021/05/25 07:23:41;;;;;;;1.67;0.95;;;;;;;;;;5018452;28;20022;-68
2021/05/25 07:26:06;;;;;;;5.10;1.13;;;;;;;;;;5015009;28;20069;-69
2021/05/25 07:28:32;;;;;;;2.72;0.90;;;;;;;;;;5011185;28;20115;-69
2021/05/25 07:30:57;;;;;;;4.45;0.80;;;;;;;;;;5010828;28;20227;-70
2021/05/25 07:33:24;;;;;;;1.20;0.65;;;;;;;;;;5011417;28;20058;-70
2021/05/25 07:35:49;;;;;;;14.25;3.33;;;;;;;;;;5010490;28;20101;-70
2021/05/25 07:38:14;;;;;;;328.02;68.35;;;;;;;;;;5011009;28;20096;-70
2021/05/25 07:40:42;;;;;;;6.55;2.63;;;;;;;;;;5011311;28;20026;-70
2021/05/25 07:43:07;;;;;;;3.75;1.58;;;;;;;;;;5011214;28;20050;-70
2021/05/25 07:45:33;;;;;;;5.28;2.53;;;;;;;;;;5010847;28;20061;-70
2021/05/25 07:47:58;;;;;;;15.50;4.15;;;;;;;;;;5010934;28;20033;-70
2021/05/25 07:50:23;;;;;;;15.73;3.63;;;;;;;;;;5010684;28;20021;-70
2021/05/25 07:52:49;;;;;;;5.75;3.17;;;;;;;;;;5010033;28;20100;-69
2021/05/25 07:55:15;;;;;;;5.40;2.42;;;;;;;;;;5010379;28;20010;-69
2021/05/25 07:57:41;;;;;;;4.30;2.08;;;;;;;;;;5008861;28;20022;-69
2021/05/25 08:00:07;;;;;;;5.20;2.70;;;;;;;;;;4992365;28;20113;-68
2021/05/25 08:02:33;;;;;;;5.15;2.35;;;;;;;;;;5006929;28;20490;-70
2021/05/25 08:04:58;;;;;;;2.78;1.67;;;;;;;;;;5010691;28;20035;-69
2021/05/25 08:07:23;;;;;;;3.87;0.83;;;;;;;;;;5010723;28;20026;-69
2021/05/25 08:09:48;;;;;;;2.60;1.10;;;;;;;;;;5010679;28;20641;-69
2021/05/25 08:12:13;;;;;;;2.80;1.00;;;;;;;;;;5010497;28;20021;-68
2021/05/25 08:14:39;;;;;;;1.50;0.60;;;;;;;;;;5009976;28;20021;-68
2021/05/25 08:17:18;;;;;;;1.05;0.38;;;;;;;;;;5010425;28;20075;-68
2021/05/25 08:19:44;;;;;;;1.80;0.77;;;;;;;;;;5010584;28;20494;-68
2021/05/25 08:22:10;;;;;;;1.40;0.90;;;;;;;;;;5010530;28;20029;-70
2021/05/25 08:24:35;;;;;;;6.70;0.70;;;;;;;;;;4991682;28;20022;-68
2021/05/25 08:27:00;;;;;;;2.25;0.65;;;;;;;;;;5010010;28;20026;-68
2021/05/25 08:29:25;;;;;;;8.43;1.65;;;;;;;;;;5009237;28;20030;-68
2021/05/25 08:31:50;;;;;;;6.88;1.00;;;;;;;;;;5009998;28;20370;-68
2021/05/25 08:34:16;;;;;;;1.08;0.60;;;;;;;;;;5010268;28;20025;-68
2021/05/25 08:36:41;;;;;;;7.00;2.40;;;;;;;;;;5009060;28;20084;-68
2021/05/25 08:39:06;;;;;;;2.22;1.02;;;;;;;;;;5010113;28;20029;-68
2021/05/25 08:41:34;;;;;;;1.88;1.20;;;;;;;;;;4992599;28;20436;-68
2021/05/25 08:43:59;;;;;;;5.63;1.58;;;;;;;;;;4992228;28;20124;-68
2021/05/25 08:46:25;;;;;;;4.03;1.27;;;;;;;;;;5009144;28;20201;-68
2021/05/25 08:48:50;;;;;;;3.40;1.30;;;;;;;;;;5010064;28;20022;-69
2021/05/25 08:51:16;;;;;;;7.15;2.17;;;;;;;;;;5009942;28;20026;-69
2021/05/25 08:53:41;;;;;;;4.70;1.20;;;;;;;;;;5009263;28;20489;-69
2021/05/25 08:56:06;;;;;;;2.38;1.13;;;;;;;;;;5009417;28;20018;-68
2021/05/25 08:58:32;;;;;;;2.45;1.05;;;;;;;;;;5009623;28;20065;-68
2021/05/25 09:00:58;;;;;;;1.83;0.93;;;;;;;;;;5010226;28;20030;-68
2021/05/25 09:03:23;;;;;;;4.97;1.45;;;;;;;;;;5009730;28;20018;-68
2021/05/25 09:05:53;;;;;;;3.25;1.73;;;;;;;;;;5009776;28;20033;-68
2021/05/25 09:08:18;;;;;;;3.53;1.40;;;;;;;;;;5009955;28;20026;-68
2021/05/25 09:10:47;;;;;;;4.07;1.60;;;;;;;;;;5010180;28;20029;-68
2021/05/25 09:13:16;;;;;;;2.83;1.50;;;;;;;;;;5008366;28;20083;-69
2021/05/25 09:15:45;;;;;;;4.30;1.55;;;;;;;;;;5009275;28;20571;-68
2021/05/25 09:18:13;;;;;;;5.40;1.60;;;;;;;;;;5009115;28;20478;-68
2021/05/25 09:20:44;;;;;;;3.95;1.10;;;;;;;;;;5009404;28;20060;-68
2021/05/25 09:23:11;;;;;;;2.65;1.20;;;;;;;;;;4992240;28;20168;-68
2021/05/25 09:25:45;;;;;;;6.68;1.60;;;;;;;;;;5009517;28;20021;-69
2021/05/25 09:28:11;;;;;;;18.02;4.70;;;;;;;;;;5009952;28;20505;-70
2021/05/25 09:30:36;;;;;;;2.75;1.15;;;;;;;;;;5013565;28;20029;-69
2021/05/25 09:33:03;;;;;;;1.98;0.98;;;;;;;;;;5014086;28;20026;-70
2021/05/25 09:35:39;;;;;;;2.00;0.88;;;;;;;;;;5013617;28;20032;-70
2021/05/25 09:38:12;;;;;;;3.33;0.95;;;;;;;;;;5012828;28;20025;-69
2021/05/25 09:40:38;;;;;;;8.05;1.20;;;;;;;;;;5013418;28;20542;-69
2021/05/25 09:43:22;;;;;;;1.65;0.90;;;;;;;;;;5013368;28;20109;-69
2021/05/25 09:46:03;;;;;;;1.85;0.95;;;;;;;;;;4999783;28;20024;-69
2021/05/25 09:48:28;;;;;;;;;;;;;;;;;;5011555;28;20026;-68
2021/05/25 09:50:54;;;;;;;2.23;1.00;;;;;;;;;;5003086;28;19909;-68
2021/05/25 09:53:21;;;;;;;32.78;7.70;;;;;;;;;;5012731;28;20269;-68
2021/05/25 09:55:54;;;;;;;41.95;8.95;;;;;;;;;;5005863;28;20014;-68
2021/05/25 09:58:21;;;;;;;9.15;2.08;;;;;;;;;;5013112;28;20017;-70
2021/05/25 10:00:46;;;;;;;8.02;1.75;;;;;;;;;;5012294;28;20026;-68
2021/05/25 10:03:13;;;;;;;5.15;1.52;;;;;;;;;;5013721;28;20026;-68
2021/05/25 10:05:39;;;;;;;4.15;1.15;;;;;;;;;;5013080;28;20398;-69
2021/05/25 10:08:05;;;;;;;5.20;1.30;;;;;;;;;;5012914;28;20026;-67
2021/05/25 10:10:31;;;;;;;20.60;2.65;;;;;;;;;;5012091;28;20026;-69
2021/05/25 10:12:57;;;;;;;9.25;1.83;;;;;;;;;;5013136;28;20113;-70
2021/05/25 10:15:24;;;;;;;10.05;2.83;;;;;;;;;;5012297;28;20097;-69
2021/05/25 10:20:26;;;;;;;8.48;2.88;;;;;;;;;;5012693;28;20036;-70
2021/05/25 10:22:52;;;;;;;13.05;3.35;;;;;;;;;;5011834;28;20113;-71
2021/05/25 10:25:18;;;;;;;8.60;3.80;;;;;;;;;;5012834;28;20059;-71
2021/05/25 10:27:47;;;;;;;6.28;2.65;;;;;;;;;;5012271;28;20034;-70
2021/05/25 10:30:21;;;;;;;6.88;3.00;;;;;;;;;;5011970;28;20022;-70
2021/05/25 10:32:46;;;;;;;6.72;3.28;;;;;;;;;;5012136;28;20032;-70
2021/05/25 10:35:17;;;;;;;6.78;3.47;;;;;;;;;;5012562;28;20022;-70
2021/05/25 10:38:02;;;;;;;5.43;3.60;;;;;;;;;;5011365;28;20057;-71
2021/05/25 10:40:36;;;;;;;7.30;3.30;;;;;;;;;;5010740;28;20462;-70
2021/05/25 10:43:19;;;;;;;6.82;4.05;;;;;;;;;;5012367;28;20022;-70
2021/05/25 10:45:45;;;;;;;10.50;4.53;;;;;;;;;;5011728;28;20048;-70
2021/05/25 10:48:10;;;;;;;5.93;3.85;;;;;;;;;;5012340;28;20360;-70
2021/05/25 10:50:46;;;;;;;11.00;4.63;;;;;;;;;;5011816;28;20017;-69
2021/05/25 10:53:26;;;;;;;12.18;4.85;;;;;;;;;;4994874;28;20021;-69
2021/05/25 10:55:51;;;;;;;10.40;5.18;;;;;;;;;;5011857;28;20034;-68
2021/05/25 10:58:16;;;;;;;8.00;4.05;;;;;;;;;;5012178;28;20033;-69
2021/05/25 11:00:42;;;;;;;6.03;4.13;;;;;;;;;;5011009;28;20062;-68
2021/05/25 11:03:13;;;;;;;8.40;3.65;;;;;;;;;;5011212;28;20346;-69
2021/05/25 11:05:39;;;;;;;9.43;2.65;;;;;;;;;;5011815;28;20057;-70
2021/05/25 11:08:07;;;;;;;7.65;2.70;;;;;;;;;;5011421;28;20049;-70
2021/05/25 11:10:38;;;;;;;6.60;2.60;;;;;;;;;;5010818;28;20030;-70
2021/05/25 11:13:21;;;;;;;7.82;3.47;;;;;;;;;;5011903;28;20072;-70
2021/05/25 11:16:21;;;;;;;9.82;3.92;;;;;;;;;;5010758;28;20022;-69
2021/05/25 11:18:56;;;;;;;9.07;4.43;;;;;;;;;;5006671;28;20510;-69
2021/05/25 11:22:02;;;;;;;10.48;3.40;;;;;;;;;;5009852;28;20064;-69
2021/05/25 11:24:35;;;;;;;6.43;2.20;;;;;;;;;;5006269;28;20076;-68
2021/05/25 11:27:01;;;;;;;13.10;3.20;;;;;;;;;;5011085;28;20022;-69
2021/05/25 11:29:30;;;;;;;10.40;2.42;;;;;;;;;;5010705;28;20026;-69
2021/05/25 11:31:58;;;;;;;5.70;2.60;;;;;;;;;;5011543;28;20030;-68
2021/05/25 11:34:24;;;;;;;6.28;2.47;;;;;;;;;;5010790;28;20426;-67
2021/05/25 11:36:57;;;;;;;9.15;2.22;;;;;;;;;;5011138;28;20359;-70
2021/05/25 11:39:23;;;;;;;4.68;1.70;;;;;;;;;;5011234;28;20113;-68
2021/05/25 11:41:48;;;;;;;6.30;2.22;;;;;;;;;;5010588;28;20085;-69
2021/05/25 11:44:15;;;;;;;4.28;2.00;;;;;;;;;;5011280;28;20054;-69
2021/05/25 11:46:45;;;;;;;5.32;1.80;;;;;;;;;;5010255;28;20551;-69
2021/05/25 11:49:11;;;;;;;7.33;3.10;;;;;;;;;;5010648;28;20072;-68
2021/05/25 11:51:36;;;;;;;7.78;3.08;;;;;;;;;;5010748;28;20025;-68
2021/05/25 11:54:12;;;;;;;8.52;2.80;;;;;;;;;;5010885;28;20023;-69
2021/05/25 11:56:38;;;;;;;6.93;3.03;;;;;;;;;;5010206;28;20234;-68
2021/05/25 11:59:12;;;;;;;9.05;3.05;;;;;;;;;;5010952;28;20029;-69
2021/05/25 12:01:38;;;;;;;22.35;6.35;;;;;;;;;;5010107;28;20022;-69
2021/05/25 12:04:05;;;;;;;5.68;2.28;;;;;;;;;;5010944;28;20101;-68
2021/05/25 12:06:30;;;;;;;4.47;2.40;;;;;;;;;;5009492;28;20018;-69
2021/05/25 12:09:04;;;;;;;12.67;2.90;;;;;;;;;;5010507;28;20021;-69
2021/05/25 12:11:37;;;;;;;11.43;3.35;;;;;;;;;;5008710;28;20268;-69
2021/05/25 12:14:02;;;;;;;5.93;1.90;;;;;;;;;;5009826;28;20029;-69
2021/05/25 12:16:27;;;;;;;5.00;2.25;;;;;;;;;;5010029;28;20018;-69
2021/05/25 12:18:52;;;;;;;8.63;2.03;;;;;;;;;;5009650;28;20030;-69
2021/05/25 12:21:18;;;;;;;7.22;2.40;;;;;;;;;;5010708;28;20494;-69
2021/05/25 12:23:44;;;;;;;8.55;2.20;;;;;;;;;;5009996;28;20381;-68
2021/05/25 12:26:11;;;;;;;18.17;2.47;;;;;;;;;;5009787;28;20537;-68
2021/05/25 12:28:38;;;;;;;7.38;1.85;;;;;;;;;;5010151;28;20034;-70
2021/05/25 12:31:04;;;;;;;3.30;1.20;;;;;;;;;;5009827;28;20381;-71
2021/05/25 12:33:32;;;;;;;7.18;1.23;;;;;;;;;;5009936;28;20488;-69
2021/05/25 12:47:51;;;;;;;4.45;1.30;;;;;;;;;;5093832;27;20929;-62
2021/05/25 12:50:24;;;;;;;7.85;2.15;;;;;;;;;;5080425;28;20105;-62
2021/05/25 12:53:01;;;;;;;4.82;1.85;;;;;;;;;;5081309;28;20020;-62
2021/05/25 12:55:26;;;;;;;5.60;1.90;;;;;;;;;;5082394;28;20020;-62
2021/05/25 12:57:53;;;;;;;6.68;1.88;;;;;;;;;;5084456;28;20020;-63
2021/05/25 13:00:34;;;;;;;14.45;3.58;;;;;;;;;;5077745;28;20024;-63
2021/05/25 13:03:01;;;;;;;3.08;1.75;;;;;;;;;;5085478;28;20218;-63
2021/05/25 13:05:26;;;;;;;7.68;1.52;;;;;;;;;;5084440;28;20028;-63
2021/05/25 13:08:05;;;;;;;9.40;2.60;;;;;;;;;;5090393;28;20022;-63
2021/05/25 13:10:36;;;;;;;3.28;1.20;;;;;;;;;;5096830;28;20036;-63
2021/05/25 13:13:15;;;;;;;3.88;0.90;;;;;;;;;;5097994;28;20047;-63
2021/05/25 13:15:45;;;;;;;11.02;1.40;;;;;;;;;;5093601;28;20035;-63
2021/05/25 13:18:13;;;;;;;8.15;1.30;;;;;;;;;;5083386;28;20039;-63
2021/05/25 13:20:39;;;;;;;2.25;0.90;;;;;;;;;;5084327;28;20054;-63
2021/05/25 13:23:20;;;;;;;4.22;1.00;;;;;;;;;;5092235;28;20016;-63
2021/05/25 13:25:52;;;;;;;2.33;0.80;;;;;;;;;;5086579;28;20524;-62
2021/05/25 13:28:17;;;;;;;6.05;0.80;;;;;;;;;;5083651;28;20546;-62
2021/05/25 13:30:46;;;;;;;3.53;0.83;;;;;;;;;;5087254;28;20103;-62
2021/05/25 13:33:11;;;;;;;2.22;1.00;;;;;;;;;;5083987;28;20294;-62
2021/05/25 13:35:36;;;;;;;5.57;1.60;;;;;;;;;;5081775;28;20078;-63
2021/05/25 13:38:05;;;;;;;6.30;1.67;;;;;;;;;;5083102;28;20028;-62
2021/05/25 13:40:31;;;;;;;9.07;1.73;;;;;;;;;;5094129;28;20562;-62
2021/05/25 13:42:56;;;;;;;8.18;1.98;;;;;;;;;;5096452;28;20024;-62
2021/05/25 13:45:22;;;;;;;8.75;1.83;;;;;;;;;;5084544;28;20039;-62
2021/05/25 13:47:47;;;;;;;13.80;2.43;;;;;;;;;;5075689;28;20475;-62
2021/05/25 13:50:25;;;;;;;6.75;2.10;;;;;;;;;;5070100;28;20380;-62
2021/05/25 13:52:51;;;;;;;6.30;2.10;;;;;;;;;;5077547;28;20386;-63
2021/05/25 13:55:19;;;;;;;12.10;2.42;;;;;;;;;;5065885;28;20766;-62
2021/05/25 13:57:44;;;;;;;6.15;2.33;;;;;;;;;;5069465;28;20021;-62
2021/05/25 14:00:17;;;;;;;7.53;2.95;;;;;;;;;;5070258;28;20648;-62
2021/05/25 14:02:42;;;;;;;7.63;1.90;;;;;;;;;;5073524;28;20012;-62
2021/05/25 14:05:07;;;;;;;6.15;1.48;;;;;;;;;;5066309;28;20028;-62
2021/05/25 14:07:35;;;;;;;6.68;1.70;;;;;;;;;;5065585;28;20020;-62
2021/05/25 14:10:01;;;;;;;8.98;1.70;;;;;;;;;;5070005;28;20105;-62
2021/05/25 14:12:26;;;;;;;9.77;1.92;;;;;;;;;;5071273;28;20514;-62
2021/05/25 14:14:51;;;;;;;8.80;1.58;;;;;;;;;;5068926;28;20555;-62
2021/05/25 14:17:16;;;;;;;6.07;1.77;;;;;;;;;;5068413;28;20116;-63
2021/05/25 14:19:41;;;;;;;6.18;2.67;;;;;;;;;;5063041;28;20282;-62
2021/05/25 14:22:07;;;;;;;8.47;2.90;;;;;;;;;;5069542;28;20020;-63
2021/05/25 14:24:32;;;;;;;6.75;1.67;;;;;;;;;;5070225;28;20396;-62
2021/05/25 14:26:57;;;;;;;11.10;1.97;;;;;;;;;;5069541;28;20398;-62
2021/05/25 14:29:22;;;;;;;6.37;1.77;;;;;;;;;;5069375;28;20349;-62
2021/05/25 14:31:47;;;;;;;6.55;1.90;;;;;;;;;;5069983;28;20259;-62
2021/05/25 14:34:13;;;;;;;11.97;1.67;;;;;;;;;;5069561;28;20090;-63
2021/05/25 14:36:38;;;;;;;8.88;1.52;;;;;;;;;;5069649;28;20287;-62
2021/05/25 14:39:04;;;;;;;5.60;1.35;;;;;;;;;;5069352;28;20013;-62
2021/05/25 14:41:29;;;;;;;7.03;1.77;;;;;;;;;;5069749;28;20013;-63
2021/05/25 14:43:54;;;;;;;7.95;2.08;;;;;;;;;;5069248;28;20027;-62
2021/05/25 14:46:19;;;;;;;6.57;1.70;;;;;;;;;;5069736;28;20731;-62
2021/05/25 14:48:45;;;;;;;6.32;2.08;;;;;;;;;;5068029;28;20262;-62
2021/05/25 14:51:10;;;;;;;5.07;1.75;;;;;;;;;;5069187;28;20036;-63
2021/05/25 14:53:50;;;;;;;4.75;1.00;;;;;;;;;;5069954;28;20033;-62
2021/05/25 14:56:20;;;;;;;8.23;1.33;;;;;;;;;;5069664;28;20033;-63
2021/05/25 14:58:49;;;;;;;8.07;1.55;;;;;;;;;;5068542;28;20378;-62